sensor_id;sensor_type;location;lat;lon;timestamp;pressure;altitude;pressure_sealevel;temperature;humidity
27980;BME280;15315;50.836;4.430;2023-02-28T00:02:18;102477.63;;;5.19;57.71
27980;BME280;15315;50.836;4.430;2023-02-28T00:12:18;102474.56;;;4.93;58.58
27980;BME280;15315;50.836;4.430;2023-02-28T00:22:20;102466.50;;;4.47;59.46
27980;BME280;15315;50.836;4.430;2023-02-28T00:32:21;102472.75;;;3.88;62.04
27980;BME280;15315;50.836;4.430;2023-02-28T00:42:22;102477.63;;;4.19;62.02
27980;BME280;15315;50.836;4.430;2023-02-28T00:52:23;102479.13;;;4.89;60.07
27980;BME280;15315;50.836;4.430;2023-02-28T01:02:23;102484.63;;;4.80;59.93
27980;BME280;15315;50.836;4.430;2023-02-28T01:12:23;102485.47;;;4.82;59.27
27980;BME280;15315;50.836;4.430;2023-02-28T01:22:24;102480.66;;;5.01;59.19
27980;BME280;15315;50.836;4.430;2023-02-28T01:32:24;102493.44;;;4.33;61.34
27980;BME280;15315;50.836;4.430;2023-02-28T01:42:25;102475.66;;;4.32;61.09
27980;BME280;15315;50.836;4.430;2023-02-28T01:52:26;102484.44;;;4.40;61.54
27980;BME280;15315;50.836;4.430;2023-02-28T02:02:28;102467.69;;;4.29;61.90
27980;BME280;15315;50.836;4.430;2023-02-28T02:43:51;102453.69;;;4.13;62.49
27980;BME280;15315;50.836;4.430;2023-02-28T02:54:02;102444.16;;;3.97;63.35
27980;BME280;15315;50.836;4.430;2023-02-28T03:04:23;102449.94;;;4.27;61.69
27980;BME280;15315;50.836;4.430;2023-02-28T03:25:07;102453.53;;;4.76;60.03
27980;BME280;15315;50.836;4.430;2023-02-28T03:35:21;102455.97;;;4.88;59.96
27980;BME280;15315;50.836;4.430;2023-02-28T03:45:26;102457.91;;;4.28;61.21
27980;BME280;15315;50.836;4.430;2023-02-28T03:55:34;102461.81;;;4.06;62.55
27980;BME280;15315;50.836;4.430;2023-02-28T04:05:51;102464.47;;;4.06;62.87
27980;BME280;15315;50.836;4.430;2023-02-28T04:15:52;102464.63;;;3.95;63.29
27980;BME280;15315;50.836;4.430;2023-02-28T04:25:55;102467.78;;;3.64;63.79
27980;BME280;15315;50.836;4.430;2023-02-28T04:36:00;102460.34;;;3.87;63.38
27980;BME280;15315;50.836;4.430;2023-02-28T04:46:03;102465.38;;;2.66;68.40
27980;BME280;15315;50.836;4.430;2023-02-28T04:56:05;102465.75;;;3.15;67.64
27980;BME280;15315;50.836;4.430;2023-02-28T05:06:07;102491.09;;;3.46;66.79
27980;BME280;15315;50.836;4.430;2023-02-28T05:16:07;102482.88;;;3.66;67.06
27980;BME280;15315;50.836;4.430;2023-02-28T05:26:08;102480.19;;;4.27;64.26
27980;BME280;15315;50.836;4.430;2023-02-28T05:36:08;102476.97;;;4.02;65.33
27980;BME280;15315;50.836;4.430;2023-02-28T05:46:10;102492.09;;;3.39;66.81
27980;BME280;15315;50.836;4.430;2023-02-28T05:56:10;102478.56;;;4.17;65.74
27980;BME280;15315;50.836;4.430;2023-02-28T06:06:11;102486.22;;;4.40;64.80
27980;BME280;15315;50.836;4.430;2023-02-28T06:16:12;102493.03;;;4.57;64.77
27980;BME280;15315;50.836;4.430;2023-02-28T06:26:12;102500.03;;;4.09;66.02
27980;BME280;15315;50.836;4.430;2023-02-28T06:36:14;102515.44;;;4.49;63.89
27980;BME280;15315;50.836;4.430;2023-02-28T06:46:14;102514.97;;;3.58;67.30
27980;BME280;15315;50.836;4.430;2023-02-28T06:56:16;102517.75;;;3.46;68.78
27980;BME280;15315;50.836;4.430;2023-02-28T07:06:21;102517.72;;;4.71;65.92
27980;BME280;15315;50.836;4.430;2023-02-28T07:16:23;102529.03;;;4.35;66.46
27980;BME280;15315;50.836;4.430;2023-02-28T07:26:24;102518.84;;;4.58;65.31
27980;BME280;15315;50.836;4.430;2023-02-28T07:36:24;102525.66;;;5.25;63.68
27980;BME280;15315;50.836;4.430;2023-02-28T07:46:26;102516.56;;;4.86;65.12
27980;BME280;15315;50.836;4.430;2023-02-28T07:56:26;102523.13;;;4.12;64.09
27980;BME280;15315;50.836;4.430;2023-02-28T08:06:26;102522.34;;;4.02;65.28
27980;BME280;15315;50.836;4.430;2023-02-28T08:16:27;102527.72;;;4.01;63.52
27980;BME280;15315;50.836;4.430;2023-02-28T08:26:27;102528.41;;;4.13;61.48
27980;BME280;15315;50.836;4.430;2023-02-28T08:36:28;102534.41;;;5.31;58.63
27980;BME280;15315;50.836;4.430;2023-02-28T08:46:29;102549.44;;;4.38;58.13
27980;BME280;15315;50.836;4.430;2023-02-28T08:56:29;102537.34;;;4.11;58.12
27980;BME280;15315;50.836;4.430;2023-02-28T09:06:31;102534.53;;;4.78;56.32
27980;BME280;15315;50.836;4.430;2023-02-28T09:16:32;102538.78;;;4.38;54.54
27980;BME280;15315;50.836;4.430;2023-02-28T09:26:33;102529.81;;;4.94;53.49
27980;BME280;15315;50.836;4.430;2023-02-28T09:36:35;102528.91;;;4.93;52.78
27980;BME280;15315;50.836;4.430;2023-02-28T09:46:43;102534.81;;;5.12;49.47
27980;BME280;15315;50.836;4.430;2023-02-28T09:56:48;102528.16;;;5.75;49.44
27980;BME280;15315;50.836;4.430;2023-02-28T10:06:55;102510.19;;;6.22;47.51
27980;BME280;15315;50.836;4.430;2023-02-28T10:17:16;102524.22;;;5.52;46.94
27980;BME280;15315;50.836;4.430;2023-02-28T10:27:25;102511.81;;;5.47;45.21
27980;BME280;15315;50.836;4.430;2023-02-28T10:37:30;102493.06;;;6.27;43.16
27980;BME280;15315;50.836;4.430;2023-02-28T10:47:32;102488.78;;;6.22;42.63
27980;BME280;15315;50.836;4.430;2023-02-28T10:57:38;102490.25;;;6.33;42.83
27980;BME280;15315;50.836;4.430;2023-02-28T11:07:38;102498.16;;;5.99;42.38
27980;BME280;15315;50.836;4.430;2023-02-28T11:17:39;102481.06;;;6.45;42.11
27980;BME280;15315;50.836;4.430;2023-02-28T11:27:52;102466.91;;;7.06;40.88
27980;BME280;15315;50.836;4.430;2023-02-28T11:37:53;102470.09;;;6.54;40.83
27980;BME280;15315;50.836;4.430;2023-02-28T11:48:13;102462.19;;;6.82;41.90
27980;BME280;15315;50.836;4.430;2023-02-28T11:58:33;102446.66;;;6.62;41.23
27980;BME280;15315;50.836;4.430;2023-02-28T12:19:19;102424.59;;;7.46;40.18
27980;BME280;15315;50.836;4.430;2023-02-28T12:29:28;102409.84;;;7.88;38.86
27980;BME280;15315;50.836;4.430;2023-02-28T12:39:33;102390.59;;;7.47;38.17
27980;BME280;15315;50.836;4.430;2023-02-28T12:50:04;102377.00;;;8.08;37.81
27980;BME280;15315;50.836;4.430;2023-02-28T13:00:18;102371.84;;;7.74;38.44
27980;BME280;15315;50.836;4.430;2023-02-28T13:10:19;102369.91;;;7.78;38.17
27980;BME280;15315;50.836;4.430;2023-02-28T13:20:54;102365.63;;;7.45;37.88
27980;BME280;15315;50.836;4.430;2023-02-28T13:51:44;102348.91;;;7.35;37.72
27980;BME280;15315;50.836;4.430;2023-02-28T14:12:54;102364.53;;;6.27;39.18
27980;BME280;15315;50.836;4.430;2023-02-28T14:23:13;102344.34;;;7.38;37.99
27980;BME280;15315;50.836;4.430;2023-02-28T14:33:46;102345.53;;;6.68;38.68
27980;BME280;15315;50.836;4.430;2023-02-28T14:43:57;102337.56;;;7.82;37.49
27980;BME280;15315;50.836;4.430;2023-02-28T14:54:00;102339.94;;;7.36;37.89
27980;BME280;15315;50.836;4.430;2023-02-28T15:04:04;102329.28;;;8.15;38.00
27980;BME280;15315;50.836;4.430;2023-02-28T15:14:05;102338.41;;;7.55;38.19
27980;BME280;15315;50.836;4.430;2023-02-28T15:24:12;102329.97;;;7.39;39.06
27980;BME280;15315;50.836;4.430;2023-02-28T15:34:37;102337.72;;;6.92;39.52
27980;BME280;15315;50.836;4.430;2023-02-28T15:44:38;102335.16;;;7.46;39.17
27980;BME280;15315;50.836;4.430;2023-02-28T15:54:38;102342.34;;;7.73;39.09
27980;BME280;15315;50.836;4.430;2023-02-28T16:05:02;102346.19;;;7.36;39.44
27980;BME280;15315;50.836;4.430;2023-02-28T16:15:22;102344.66;;;7.28;39.72
27980;BME280;15315;50.836;4.430;2023-02-28T16:25:29;102352.84;;;7.23;40.20
27980;BME280;15315;50.836;4.430;2023-02-28T16:35:33;102363.00;;;6.83;40.73
27980;BME280;15315;50.836;4.430;2023-02-28T16:45:33;102362.84;;;6.88;40.59
27980;BME280;15315;50.836;4.430;2023-02-28T16:55:34;102374.34;;;7.22;40.58
27980;BME280;15315;50.836;4.430;2023-02-28T17:05:37;102370.41;;;7.04;41.21
27980;BME280;15315;50.836;4.430;2023-02-28T17:15:39;102383.59;;;7.70;40.30
27980;BME280;15315;50.836;4.430;2023-02-28T17:25:40;102405.84;;;7.74;40.22
27980;BME280;15315;50.836;4.430;2023-02-28T17:35:41;102413.38;;;7.61;40.16
27980;BME280;15315;50.836;4.430;2023-02-28T17:45:41;102431.34;;;7.59;40.29
27980;BME280;15315;50.836;4.430;2023-02-28T17:55:41;102434.50;;;7.44;40.78
27980;BME280;15315;50.836;4.430;2023-02-28T18:05:42;102436.16;;;7.19;41.12
27980;BME280;15315;50.836;4.430;2023-02-28T18:15:42;102439.88;;;7.44;40.87
27980;BME280;15315;50.836;4.430;2023-02-28T18:25:43;102443.00;;;6.97;41.10
27980;BME280;15315;50.836;4.430;2023-02-28T18:35:43;102462.75;;;7.26;41.42
27980;BME280;15315;50.836;4.430;2023-02-28T18:45:43;102452.53;;;7.08;41.65
27980;BME280;15315;50.836;4.430;2023-02-28T18:55:44;102450.09;;;7.30;41.50
27980;BME280;15315;50.836;4.430;2023-02-28T19:05:45;102454.03;;;7.49;41.35
27980;BME280;15315;50.836;4.430;2023-02-28T19:15:46;102454.00;;;6.88;42.37
27980;BME280;15315;50.836;4.430;2023-02-28T19:25:47;102463.56;;;6.96;42.46
27980;BME280;15315;50.836;4.430;2023-02-28T19:35:47;102456.91;;;6.80;42.40
27980;BME280;15315;50.836;4.430;2023-02-28T19:45:47;102464.25;;;7.35;42.18
27980;BME280;15315;50.836;4.430;2023-02-28T19:55:48;102476.06;;;6.97;42.92
27980;BME280;15315;50.836;4.430;2023-02-28T20:05:59;102478.50;;;6.74;43.75
27980;BME280;15315;50.836;4.430;2023-02-28T20:16:02;102494.78;;;6.66;43.35
27980;BME280;15315;50.836;4.430;2023-02-28T20:26:05;102482.97;;;6.40;44.29
27980;BME280;15315;50.836;4.430;2023-02-28T20:36:06;102479.34;;;6.04;45.31
27980;BME280;15315;50.836;4.430;2023-02-28T20:46:09;102485.06;;;5.87;45.73
27980;BME280;15315;50.836;4.430;2023-02-28T20:56:17;102486.78;;;5.90;45.68
27980;BME280;15315;50.836;4.430;2023-02-28T21:06:20;102490.56;;;6.21;45.39
27980;BME280;15315;50.836;4.430;2023-02-28T21:16:23;102483.72;;;6.79;44.38
27980;BME280;15315;50.836;4.430;2023-02-28T21:26:25;102470.03;;;6.89;44.62
27980;BME280;15315;50.836;4.430;2023-02-28T21:36:28;102485.91;;;6.29;45.78
27980;BME280;15315;50.836;4.430;2023-02-28T21:46:31;102480.75;;;6.20;45.93
27980;BME280;15315;50.836;4.430;2023-02-28T21:56:35;102466.16;;;6.33;46.31
27980;BME280;15315;50.836;4.430;2023-02-28T22:06:38;102475.06;;;5.95;47.05
27980;BME280;15315;50.836;4.430;2023-02-28T22:16:42;102478.00;;;5.85;47.34
27980;BME280;15315;50.836;4.430;2023-02-28T22:26:44;102492.16;;;6.28;46.46
27980;BME280;15315;50.836;4.430;2023-02-28T22:36:56;102483.63;;;6.11;47.22
27980;BME280;15315;50.836;4.430;2023-02-28T22:46:59;102478.84;;;6.25;46.90
27980;BME280;15315;50.836;4.430;2023-02-28T22:57:03;102478.19;;;6.52;46.26
27980;BME280;15315;50.836;4.430;2023-02-28T23:07:04;102479.91;;;5.80;47.39
27980;BME280;15315;50.836;4.430;2023-02-28T23:17:07;102502.63;;;5.59;48.44
27980;BME280;15315;50.836;4.430;2023-02-28T23:27:07;102502.00;;;5.88;47.59
27980;BME280;15315;50.836;4.430;2023-02-28T23:37:08;102504.63;;;5.91;47.82
27980;BME280;15315;50.836;4.430;2023-02-28T23:47:08;102509.38;;;5.78;47.73
27980;BME280;15315;50.836;4.430;2023-02-28T23:57:12;102502.81;;;5.91;47.82
